Time;durP1;ratioP1;P1;durP2;ratioP2;P2;SDS_P1;SDS_P2;PMS_P1;PMS_P2;Temp;Humidity;BMP_temperature;BMP_pressure;BME280_temperature;BME280_humidity;BME280_pressure;Samples;Min_cycle;Max_cycle;Signal;HPM_P1;HPM_P2
2022/02/07 00:01:54;;;;;;;23.88;9.95;;;;;;;-3.72;64.77;98672.28;4943390;28;20137;-83
2022/02/07 00:04:25;;;;;;;31.75;11.57;;;;;;;-3.79;65.27;98664.69;4974224;28;20494;-83
2022/02/07 00:06:51;;;;;;;31.65;10.95;;;;;;;-3.78;65.37;98674.22;4958370;28;20043;-84
2022/02/07 00:09:18;;;;;;;25.35;10.07;;;;;;;-3.72;65.30;98674.88;4975316;28;20498;-83
2022/02/07 00:11:44;;;;;;;23.55;10.32;;;;;;;-3.80;65.07;98666.44;4958487;28;20047;-84
2022/02/07 00:14:09;;;;;;;28.70;10.63;;;;;;;-3.84;65.28;98664.81;4974020;28;20070;-84
2022/02/07 00:16:37;;;;;;;25.40;10.55;;;;;;;-3.78;64.92;98669.84;4975404;28;20047;-82
2022/02/07 00:19:05;;;;;;;25.75;10.93;;;;;;;-3.80;65.15;98676.91;4942067;28;20057;-87
2022/02/07 00:21:32;;;;;;;22.55;10.18;;;;;;;-3.80;65.58;98676.91;4958228;28;20106;-88
2022/02/07 00:23:58;;;;;;;27.75;9.95;;;;;;;-3.79;65.37;98677.75;4974063;28;20050;-84
2022/02/07 00:26:24;;;;;;;26.58;9.85;;;;;;;-3.84;65.33;98675.25;4973455;28;20532;-83
2022/02/07 00:28:51;;;;;;;27.75;11.13;;;;;;;-3.75;65.40;98668.91;4957728;28;20050;-83
2022/02/07 00:31:17;;;;;;;25.50;10.57;;;;;;;-3.66;65.05;98679.88;4973710;28;20065;-84
2022/02/07 00:33:43;;;;;;;28.40;10.60;;;;;;;-3.62;65.00;98671.94;4941452;28;20039;-85
2022/02/07 00:36:13;;;;;;;27.85;10.45;;;;;;;-3.57;64.79;98662.19;4973709;28;20149;-84
2022/02/07 00:38:42;;;;;;;31.67;10.73;;;;;;;-3.77;65.34;98661.09;4957807;28;20043;-90
2022/02/07 00:41:18;;;;;;;28.67;10.65;;;;;;;-3.78;65.17;98672.47;4958330;28;20039;-86
2022/02/07 00:43:46;;;;;;;36.53;10.80;;;;;;;-3.73;65.27;98678.38;4958001;28;20046;-83
2022/02/07 00:46:20;;;;;;;24.38;10.25;;;;;;;-3.74;64.97;98671.44;4974845;28;20078;-83
2022/02/07 00:48:46;;;;;;;26.00;9.85;;;;;;;-3.72;65.13;98668.81;4974604;28;20125;-86
2022/02/07 00:51:12;;;;;;;26.70;10.40;;;;;;;-3.60;65.21;98676.22;4974424;28;20058;-85
2022/02/07 00:53:38;;;;;;;25.63;9.27;;;;;;;-3.83;65.26;98684.81;4974942;28;20105;-85
2022/02/07 00:56:05;;;;;;;22.27;9.85;;;;;;;-3.88;65.34;98689.31;4941441;28;20145;-85
2022/02/07 00:58:34;;;;;;;24.65;9.75;;;;;;;-3.97;65.54;98674.81;4973375;28;20505;-83
2022/02/07 01:01:00;;;;;;;26.25;10.35;;;;;;;-4.07;65.66;98682.97;4973394;28;20054;-83
2022/02/07 01:03:31;;;;;;;28.58;10.10;;;;;;;-4.03;65.56;98688.03;4973787;28;20050;-85
2022/02/07 01:06:00;;;;;;;22.60;9.38;;;;;;;-3.95;65.81;98685.19;4960002;28;20047;-89
2022/02/07 01:08:37;;;;;;;29.83;10.63;;;;;;;-3.93;65.40;98686.00;4961873;28;20113;-92
2022/02/07 01:22:12;;;;;;;21.17;8.70;;;;;;;-4.09;65.00;98693.47;4989535;28;20047;-85
2022/02/07 01:47:28;;;;;;;25.25;8.98;;;;;;;-4.42;65.01;98693.59;4980162;28;20046;-84
2022/02/07 01:55:00;;;;;;;23.00;9.40;;;;;;;-4.20;65.10;98699.03;4976490;28;20101;-84
2022/02/07 01:57:26;;;;;;;17.85;8.07;;;;;;;-4.19;64.70;98694.66;4946651;28;20046;-84
2022/02/07 01:59:53;;;;;;;24.38;9.10;;;;;;;-4.26;64.68;98694.00;4960720;28;20090;-85
2022/02/07 02:02:20;;;;;;;25.10;8.98;;;;;;;-4.29;64.85;98693.22;4960275;28;20126;-84
2022/02/07 02:04:46;;;;;;;22.15;8.77;;;;;;;-4.28;64.83;98690.59;4961570;28;20434;-84
2022/02/07 02:07:21;;;;;;;17.15;8.50;;;;;;;-4.25;64.85;98705.28;4963571;28;20086;-84
2022/02/07 02:09:48;;;;;;;27.73;9.23;;;;;;;-4.28;64.67;98705.41;4960508;28;20077;-84
2022/02/07 02:12:16;;;;;;;20.97;8.73;;;;;;;-4.27;64.92;98707.09;4992972;28;20112;-85
2022/02/07 02:14:57;;;;;;;27.17;9.00;;;;;;;-4.23;64.83;98704.34;4960314;28;20290;-85
2022/02/07 02:36:43;;;;;;;20.52;9.00;;;;;;;-4.48;64.77;98703.34;4985060;28;20057;-85
2022/02/07 02:47:18;;;;;;;22.33;9.52;;;;;;;-4.60;64.76;98709.78;4985152;28;20127;-84
2022/02/07 02:49:48;;;;;;;20.52;8.95;;;;;;;-4.50;65.13;98726.03;4976040;28;20525;-85
2022/02/07 02:52:15;;;;;;;31.95;8.85;;;;;;;-4.46;65.06;98719.84;4960275;28;20106;-84
2022/02/07 02:54:42;;;;;;;23.88;9.27;;;;;;;-4.50;64.86;98726.03;4959667;28;20406;-83
2022/02/07 02:57:07;;;;;;;32.00;9.55;;;;;;;-4.67;65.30;98714.31;4976484;28;20147;-84
2022/02/07 02:59:33;;;;;;;27.38;9.50;;;;;;;-4.67;65.56;98719.53;4959406;28;20458;-83
2022/02/07 03:01:59;;;;;;;27.50;9.73;;;;;;;-4.70;65.17;98724.88;4959427;28;20050;-84
2022/02/07 03:04:26;;;;;;;25.92;10.45;;;;;;;-4.70;65.77;98718.78;4943280;28;20137;-85
2022/02/07 03:06:52;;;;;;;24.33;9.55;;;;;;;-4.66;65.60;98734.31;4926535;28;20042;-84
2022/02/07 03:09:18;;;;;;;23.23;10.32;;;;;;;-4.68;65.58;98732.63;4957109;28;20057;-84
2022/02/07 03:11:46;;;;;;;39.55;9.95;;;;;;;-4.69;65.62;98737.00;4959358;28;20058;-83
2022/02/07 03:14:22;;;;;;;23.42;9.13;;;;;;;-4.68;65.89;98738.69;4959403;28;20053;-84
2022/02/07 03:16:50;;;;;;;27.33;10.52;;;;;;;-4.64;65.46;98729.88;4959970;28;20070;-85
2022/02/07 03:19:18;;;;;;;27.88;10.07;;;;;;;-4.65;66.00;98738.63;4927369;28;20125;-83
2022/02/07 03:21:47;;;;;;;39.30;10.18;;;;;;;-4.59;65.87;98736.72;4959713;28;20189;-83
2022/02/07 03:24:15;;;;;;;25.13;9.63;;;;;;;-4.54;65.80;98740.06;4975037;28;20086;-83
2022/02/07 03:26:51;;;;;;;30.95;9.82;;;;;;;-4.51;65.21;98743.44;4946235;28;20054;-85
2022/02/07 03:29:24;;;;;;;28.05;9.27;;;;;;;-4.53;65.14;98745.22;4972438;28;20053;-84
2022/02/07 03:31:51;;;;;;;22.63;9.50;;;;;;;-4.70;65.44;98739.63;4946159;28;20038;-85
2022/02/07 03:34:23;;;;;;;22.83;9.48;;;;;;;-4.69;65.42;98742.22;4948676;28;20046;-84
2022/02/07 03:36:52;;;;;;;22.90;9.20;;;;;;;-4.83;65.84;98736.53;4978477;28;20085;-84
2022/02/07 03:39:20;;;;;;;26.13;8.68;;;;;;;-4.72;65.77;98750.13;4993992;28;20100;-84
2022/02/07 03:41:46;;;;;;;21.50;9.10;;;;;;;-4.84;65.66;98741.78;4978182;28;20042;-84
2022/02/07 03:44:13;;;;;;;26.52;9.73;;;;;;;-4.89;66.03;98737.56;4946072;28;20046;-83
2022/02/07 03:46:39;;;;;;;27.23;10.25;;;;;;;-4.86;66.01;98740.97;4961734;28;20181;-83
2022/02/07 03:49:06;;;;;;;24.50;10.38;;;;;;;-4.86;66.30;98734.00;4962089;28;20061;-86
2022/02/07 03:51:34;;;;;;;35.38;11.13;;;;;;;-4.79;65.99;98738.16;4978156;28;20085;-86
2022/02/07 03:54:00;;;;;;;29.75;9.82;;;;;;;-4.80;66.00;98733.84;5010507;28;20137;-87
2022/02/07 03:56:26;;;;;;;26.42;9.45;;;;;;;-4.87;65.92;98734.91;4930076;28;20141;-90
2022/02/07 03:58:52;;;;;;;43.28;10.88;;;;;;;-4.86;66.23;98734.00;4945632;28;20512;-85
2022/02/07 04:01:23;;;;;;;26.90;9.80;;;;;;;-4.89;66.03;98744.50;4993012;28;20129;-85
2022/02/07 04:03:51;;;;;;;28.70;10.30;;;;;;;-4.97;66.47;98742.09;4946999;28;20446;-89
2022/02/07 04:06:19;;;;;;;26.50;9.30;;;;;;;-4.97;66.32;98744.72;4946872;28;20046;-88
2022/02/07 04:08:57;;;;;;;21.90;9.73;;;;;;;-4.90;65.86;98753.22;4979828;28;20046;-87
2022/02/07 04:11:51;;;;;;;36.53;10.35;;;;;;;-4.97;66.04;98751.69;5009974;28;20124;-82
2022/02/07 04:14:23;;;;;;;24.42;9.98;;;;;;;-4.97;66.06;98747.31;4962041;28;20046;-85
2022/02/07 04:17:07;;;;;;;30.70;10.23;;;;;;;-4.92;66.25;98749.81;4967245;28;20061;-85
2022/02/07 04:19:35;;;;;;;19.45;8.65;;;;;;;-5.02;66.00;98743.13;4995011;28;20045;-85
2022/02/07 04:22:08;;;;;;;25.35;9.13;;;;;;;-4.88;65.92;98762.72;4947135;28;20103;-84
2022/02/07 04:24:57;;;;;;;30.27;10.63;;;;;;;-4.88;65.75;98761.88;4981194;28;20390;-88
2022/02/07 04:27:30;;;;;;;15.68;7.15;;;;;;;-4.69;68.74;98767.44;4995271;28;20049;-89
2022/02/07 04:29:56;;;;;;;34.25;9.80;;;;;;;-4.45;66.46;98760.66;4993516;28;20145;-81
2022/02/07 04:32:26;;;;;;;34.85;10.45;;;;;;;-4.55;65.23;98769.63;4976942;28;20096;-81
2022/02/07 04:34:53;;;;;;;32.13;10.02;;;;;;;-4.54;65.09;98763.53;4994207;28;20050;-83
2022/02/07 04:37:20;;;;;;;25.98;10.30;;;;;;;-4.59;64.88;98762.81;4993640;28;20049;-88
2022/02/07 04:39:46;;;;;;;34.88;10.23;;;;;;;-4.67;64.46;98763.88;4978678;28;20513;-82
2022/02/07 04:42:23;;;;;;;24.50;9.70;;;;;;;-4.60;64.48;98761.94;4978419;28;20045;-81
2022/02/07 04:45:16;;;;;;;23.42;9.18;;;;;;;-4.65;64.59;98769.91;4962516;28;20069;-87
2022/02/07 04:50:39;;;;;;;21.70;9.43;;;;;;;-4.63;64.03;98777.69;4997746;28;20065;-84
2022/02/07 04:56:00;;;;;;;30.10;9.50;;;;;;;-4.76;64.38;98774.56;4961290;28;20048;-82
2022/02/07 05:01:11;;;;;;;36.20;9.48;;;;;;;-4.77;64.53;98770.25;4977904;28;20470;-86
2022/02/07 05:03:49;;;;;;;33.95;10.13;;;;;;;-4.70;64.06;98773.53;4994015;28;20068;-85
2022/02/07 05:14:39;;;;;;;23.35;9.05;;;;;;;-4.25;63.19;98778.34;4976021;28;20130;-90
2022/02/07 05:17:09;;;;;;;25.75;9.73;;;;;;;-4.12;63.32;98773.63;4992426;28;20054;-86
2022/02/07 05:19:57;;;;;;;21.63;10.35;;;;;;;-4.00;62.47;98786.31;4965496;28;20461;-82
2022/02/07 05:22:36;;;;;;;26.05;8.90;;;;;;;-3.88;62.03;98783.31;4976585;28;20049;-86
2022/02/07 05:25:14;;;;;;;25.00;9.70;;;;;;;-3.88;61.64;98785.94;4977939;28;20053;-88
2022/02/07 05:28:16;;;;;;;36.00;11.35;;;;;;;-3.81;61.26;98800.50;4960783;28;20057;-83
2022/02/07 05:30:54;;;;;;;31.65;10.25;;;;;;;-3.72;61.55;98796.78;4999497;28;20513;-83
2022/02/07 05:33:43;;;;;;;25.02;8.90;;;;;;;-3.55;60.90;98793.63;4974203;28;20549;-79
2022/02/07 05:36:27;;;;;;;27.85;9.80;;;;;;;-3.51;60.60;98792.63;4949961;28;20049;-78
2022/02/07 05:39:19;;;;;;;22.85;9.68;;;;;;;-3.41;60.41;98794.03;4972352;28;20081;-81
2022/02/07 05:42:03;;;;;;;28.23;9.88;;;;;;;-3.26;60.11;98816.22;5011772;28;20410;-82
2022/02/07 05:44:55;;;;;;;33.95;11.68;;;;;;;-3.24;59.70;98812.63;4980515;28;20045;-79
2022/02/07 05:47:42;;;;;;;27.23;11.05;;;;;;;-3.19;58.97;98825.56;4976914;28;20058;-89
2022/02/07 05:50:24;;;;;;;35.35;10.95;;;;;;;-3.11;59.43;98817.47;4967958;28;20193;-89
2022/02/07 05:53:11;;;;;;;23.40;10.45;;;;;;;-2.91;58.94;98830.72;4993534;28;20104;-85
2022/02/07 05:55:51;;;;;;;26.00;10.38;;;;;;;-2.99;58.60;98827.50;4963812;28;20044;-82
2022/02/07 05:58:34;;;;;;;28.15;11.50;;;;;;;-2.91;58.47;98833.34;4992007;28;20065;-85
2022/02/07 06:01:29;;;;;;;38.15;11.10;;;;;;;-2.85;58.80;98830.53;4962279;28;20530;-83
2022/02/07 06:03:58;;;;;;;63.33;12.23;;;;;;;-2.89;58.05;98826.31;4991309;28;20047;-87
2022/02/07 06:06:25;;;;;;;29.25;10.75;;;;;;;-2.78;58.13;98832.03;4959719;28;20053;-82
2022/02/07 06:08:53;;;;;;;26.98;10.75;;;;;;;-2.64;57.62;98825.44;4977356;28;20050;-89
2022/02/07 06:11:22;;;;;;;29.33;10.48;;;;;;;-2.74;57.61;98838.84;4984520;28;20046;-88
2022/02/07 06:13:49;;;;;;;24.63;10.48;;;;;;;-2.72;57.49;98816.09;4977128;28;20038;-83
2022/02/07 06:16:17;;;;;;;29.20;10.77;;;;;;;-2.52;57.50;98823.28;4976301;28;20525;-79
2022/02/07 06:18:50;;;;;;;25.15;10.93;;;;;;;-2.30;56.86;98833.81;4961005;28;20046;-84
2022/02/07 06:21:20;;;;;;;29.58;10.15;;;;;;;-2.28;56.29;98836.38;4971282;28;20046;-84
2022/02/07 06:23:46;;;;;;;26.25;11.90;;;;;;;-2.29;56.02;98835.53;4959848;28;20046;-89
2022/02/07 06:26:16;;;;;;;22.58;9.73;;;;;;;-2.17;56.31;98838.63;4972841;28;20050;-83
2022/02/07 06:28:44;;;;;;;39.05;11.60;;;;;;;-2.24;56.04;98832.75;4981287;28;20489;-81
2022/02/07 06:31:10;;;;;;;22.17;9.35;;;;;;;-2.28;55.79;98837.22;4979317;28;20053;-84
2022/02/07 06:33:37;;;;;;;30.25;10.45;;;;;;;-2.32;55.62;98840.03;4978607;28;20052;-85
2022/02/07 06:36:06;;;;;;;26.73;9.70;;;;;;;-2.16;61.65;98841.16;4965896;28;20050;-84
2022/02/07 06:38:32;;;;;;;33.22;11.18;;;;;;;-1.59;59.25;98852.97;4964572;28;20481;-82
2022/02/07 06:40:59;;;;;;;31.73;10.55;;;;;;;-1.50;54.51;98834.28;4947522;28;20094;-82
2022/02/07 06:43:26;;;;;;;29.88;10.82;;;;;;;-1.63;54.24;98835.66;4978928;28;20104;-80
2022/02/07 06:45:52;;;;;;;29.60;11.30;;;;;;;-1.48;54.01;98842.09;4978823;28;20061;-85
2022/02/07 06:48:21;;;;;;;28.27;11.45;;;;;;;-1.45;53.72;98828.00;4963444;28;20053;-80
2022/02/07 06:50:47;;;;;;;26.83;11.70;;;;;;;-1.49;53.30;98837.75;4982305;28;20145;-79
2022/02/07 06:53:13;;;;;;;30.48;10.57;;;;;;;-1.68;53.28;98815.81;4947185;28;20089;-86
2022/02/07 06:55:40;;;;;;;33.75;11.07;;;;;;;-1.83;53.86;98822.50;4978465;28;20100;-81
2022/02/07 06:58:08;;;;;;;33.70;11.68;;;;;;;-1.64;54.20;98827.88;4962590;28;20462;-78
2022/02/07 07:00:34;;;;;;;29.15;10.73;;;;;;;-1.38;53.47;98824.25;4962558;28;20565;-82
2022/02/07 07:03:05;;;;;;;34.35;11.20;;;;;;;-1.27;52.91;98820.28;4978019;28;20048;-85
2022/02/07 07:05:32;;;;;;;39.35;11.18;;;;;;;-1.13;53.02;98829.31;4946043;28;20042;-84
2022/02/07 07:08:00;;;;;;;28.15;10.75;;;;;;;-1.13;52.15;98831.94;4963138;28;20074;-89
2022/02/07 07:10:26;;;;;;;23.30;9.98;;;;;;;-1.09;52.09;98831.78;4963513;28;20051;-86
2022/02/07 07:13:07;;;;;;;35.58;10.95;;;;;;;-1.25;51.78;98833.31;4979338;28;20053;-87
2022/02/07 07:15:43;;;;;;;29.55;10.15;;;;;;;-1.36;51.55;98823.25;4995959;28;20154;-85
2022/02/07 07:18:10;;;;;;;29.88;12.25;;;;;;;-1.20;52.14;98838.34;4964920;28;20513;-81
2022/02/07 07:20:39;;;;;;;35.95;11.77;;;;;;;-1.17;51.68;98833.00;4978724;28;20100;-83
2022/02/07 07:23:05;;;;;;;33.30;11.32;;;;;;;-1.32;51.69;98845.78;4978817;28;20409;-88
2022/02/07 07:25:33;;;;;;;26.55;10.23;;;;;;;-1.83;52.13;98839.06;4979187;28;20050;-86
2022/02/07 07:30:28;;;;;;;32.50;11.38;;;;;;;-1.34;52.92;98847.66;4995355;28;20517;-82
2022/02/07 07:33:01;;;;;;;34.47;10.30;;;;;;;-1.05;51.93;98837.75;4977920;28;20046;-84
2022/02/07 07:35:27;;;;;;;29.48;12.05;;;;;;;-0.95;52.03;98840.84;4976400;28;20042;-85
2022/02/07 07:37:53;;;;;;;28.58;11.10;;;;;;;-0.88;51.66;98830.03;4961474;28;20105;-84
2022/02/07 07:40:20;;;;;;;28.10;11.48;;;;;;;-0.92;51.15;98836.31;4946078;28;20176;-82
2022/02/07 07:42:52;;;;;;;33.10;12.25;;;;;;;-0.75;51.66;98844.34;4945905;28;20065;-80
2022/02/07 07:45:55;;;;;;;27.70;11.02;;;;;;;-0.69;50.70;98842.38;4993479;28;20050;-80
2022/02/07 07:48:41;;;;;;;27.80;12.63;;;;;;;-0.79;50.81;98840.16;4996639;28;20050;-88
2022/02/07 07:51:48;;;;;;;26.25;12.27;;;;;;;-0.68;50.92;98846.69;4993556;28;20061;-86
2022/02/07 07:54:41;;;;;;;31.75;11.18;;;;;;;-0.67;50.45;98827.44;4979723;28;20131;-90
2022/02/07 08:02:45;;;;;;;30.67;11.40;;;;;;;-0.57;49.81;98834.81;4993924;28;20391;-82
2022/02/07 08:05:23;;;;;;;27.90;13.20;;;;;;;-0.76;50.40;98834.75;4945690;28;20464;-83
2022/02/07 08:07:55;;;;;;;28.17;12.57;;;;;;;-0.85;51.07;98844.81;4979541;28;20034;-79
2022/02/07 08:10:43;;;;;;;34.70;12.82;;;;;;;-0.84;51.07;98826.34;4995674;28;20137;-89
2022/02/07 08:13:16;;;;;;;28.33;11.90;;;;;;;-0.75;49.99;98839.09;4967434;28;20046;-88
2022/02/07 08:15:46;;;;;;;28.52;11.18;;;;;;;-0.67;51.08;98833.53;4984704;28;20288;-90
2022/02/07 08:18:12;;;;;;;28.85;12.18;;;;;;;-0.35;50.87;98850.50;4988105;28;20041;-87
2022/02/07 08:20:38;;;;;;;27.85;11.50;;;;;;;-0.14;50.13;98853.13;4969948;28;20129;-88
2022/02/07 08:23:06;;;;;;;31.42;12.20;;;;;;;-0.04;50.03;98850.03;5001802;28;20045;-84
2022/02/07 08:25:33;;;;;;;31.90;11.32;;;;;;;0.17;49.66;98858.69;4967654;28;20078;-91
2022/02/07 08:27:58;;;;;;;32.80;11.57;;;;;;;0.33;48.73;98856.22;4978013;28;20035;-88
2022/02/07 08:30:25;;;;;;;25.88;11.13;;;;;;;0.53;47.78;98863.19;5008517;28;20064;-90
2022/02/07 08:32:51;;;;;;;28.98;11.00;;;;;;;0.37;47.91;98854.28;4992198;28;20065;-91
2022/02/07 08:35:17;;;;;;;27.73;11.20;;;;;;;0.36;48.38;98857.84;5022667;28;20038;-87
2022/02/07 08:37:46;;;;;;;24.52;11.00;;;;;;;0.37;48.12;98867.44;4986034;28;20053;-91
2022/02/07 08:40:12;;;;;;;23.30;11.20;;;;;;;-0.12;48.24;98877.53;5005785;28;20115;-89
2022/02/07 08:42:38;;;;;;;22.45;10.93;;;;;;;0.03;48.08;98866.34;4967536;28;20065;-88
2022/02/07 08:45:05;;;;;;;22.77;9.70;;;;;;;0.01;48.01;98868.22;4948594;28;20038;-86
2022/02/07 08:47:31;;;;;;;32.67;11.40;;;;;;;-0.09;47.73;98878.25;4989844;28;20132;-90
2022/02/07 08:49:58;;;;;;;24.25;10.35;;;;;;;0.05;48.45;98875.03;4995640;28;20034;-92
2022/02/07 08:52:26;;;;;;;31.70;11.48;;;;;;;-0.03;48.53;98877.16;4977727;28;20050;-91
2022/02/07 08:54:55;;;;;;;24.08;9.40;;;;;;;-0.41;47.87;98850.78;4952329;28;20141;-80
2022/02/07 08:57:29;;;;;;;27.17;11.52;;;;;;;-0.45;48.83;98875.47;4938563;29;20493;-81
2022/02/07 09:05:15;;;;;;;25.65;10.32;;;;;;;-0.26;48.50;98871.13;4965552;29;20039;-87
2022/02/07 09:07:48;;;;;;;30.27;11.00;;;;;;;-0.18;48.81;98869.94;4950219;29;20139;-85
2022/02/07 09:10:14;;;;;;;24.95;11.07;;;;;;;0.10;48.28;98870.41;4946840;29;20133;-82
2022/02/07 09:12:43;;;;;;;22.73;10.38;;;;;;;0.21;47.89;98876.03;4933092;29;20051;-80
2022/02/07 09:15:38;;;;;;;;;;;;;;;0.19;47.70;98883.16;4956918;29;20065;-81
2022/02/07 09:18:07;;;;;;;24.42;10.65;;;;;;;0.42;47.86;98873.38;4950402;28;20033;-82
2022/02/07 09:20:36;;;;;;;35.95;10.70;;;;;;;0.26;47.84;98885.47;4937369;29;20529;-81
2022/02/07 09:23:03;;;;;;;33.58;12.05;;;;;;;0.40;47.96;98875.19;4921388;29;20039;-81
2022/02/07 09:25:29;;;;;;;29.17;10.77;;;;;;;0.58;47.04;98882.22;4950087;28;20046;-82
2022/02/07 09:27:55;;;;;;;29.33;11.43;;;;;;;0.72;46.64;98882.44;4960473;28;20046;-80
2022/02/07 09:30:21;;;;;;;29.05;11.15;;;;;;;0.56;46.93;98888.47;4944417;28;20141;-80
2022/02/07 09:32:48;;;;;;;28.50;11.93;;;;;;;0.55;47.24;98879.75;5009002;28;20046;-83
2022/02/07 09:35:14;;;;;;;29.67;10.93;;;;;;;0.73;46.52;98884.13;4928403;28;20046;-82
2022/02/07 09:37:40;;;;;;;33.15;11.20;;;;;;;0.73;46.27;98878.03;4944946;28;20042;-82
2022/02/07 09:40:06;;;;;;;32.53;11.88;;;;;;;0.81;46.21;98886.41;4928589;28;20038;-82
2022/02/07 09:42:34;;;;;;;22.23;10.43;;;;;;;0.57;46.45;98883.16;4992534;28;20038;-82
2022/02/07 09:45:10;;;;;;;26.25;10.00;;;;;;;0.28;46.51;98891.53;4976797;28;20521;-81
2022/02/07 09:47:38;;;;;;;17.83;9.75;;;;;;;0.52;46.41;98895.66;4992171;28;20454;-80
2022/02/07 09:50:06;;;;;;;27.63;10.63;;;;;;;0.59;45.59;98896.22;4976058;28;20042;-80
2022/02/07 09:52:33;;;;;;;27.15;10.55;;;;;;;0.69;45.54;98901.00;4991796;28;20058;-80
2022/02/07 09:54:59;;;;;;;21.90;10.13;;;;;;;0.66;46.39;98895.03;4976011;28;20042;-84
2022/02/07 09:57:25;;;;;;;25.80;11.27;;;;;;;0.96;45.67;98909.34;4975754;28;20046;-81
2022/02/07 09:59:53;;;;;;;26.77;13.35;;;;;;;1.15;45.76;98909.31;5004611;28;20061;-79
2022/02/07 10:02:30;;;;;;;32.45;12.30;;;;;;;1.18;44.36;98911.81;4966666;28;20046;-80
2022/02/07 10:05:01;;;;;;;20.75;9.85;;;;;;;1.09;44.65;98912.28;4953129;28;20045;-79
2022/02/07 10:07:39;;;;;;;20.88;10.07;;;;;;;1.05;44.96;98910.69;4964459;28;20042;-81
2022/02/07 10:18:15;;;;;;;26.33;10.52;;;;;;;0.48;44.74;98920.38;4964507;28;20047;-80
2022/02/07 10:41:07;;;;;;;27.00;10.93;;;;;;;-0.05;46.17;98911.34;4995407;28;20129;-81
2022/02/07 10:45:35;;;;;;;25.63;11.13;;;;;;;0.00;46.27;98926.94;4995508;28;20042;-80
2022/02/07 10:48:06;;;;;;;24.83;11.40;;;;;;;-0.31;46.83;98925.59;4994851;28;20046;-83
2022/02/07 10:50:33;;;;;;;28.80;11.80;;;;;;;-0.33;47.00;98934.50;4979776;28;20045;-81
2022/02/07 10:53:00;;;;;;;29.23;12.02;;;;;;;-0.37;46.52;98922.41;4962776;28;20042;-79
2022/02/07 10:55:30;;;;;;;29.92;13.48;;;;;;;-0.36;46.85;98927.59;4962606;28;20136;-79
2022/02/07 10:57:59;;;;;;;19.55;10.82;;;;;;;-0.48;46.51;98925.50;4963323;28;20472;-82
2022/02/07 11:00:54;;;;;;;25.98;11.48;;;;;;;-0.60;46.55;98929.47;4946535;28;20052;-80
2022/02/07 11:03:20;;;;;;;30.00;12.00;;;;;;;-0.98;47.51;98937.13;4951862;28;20038;-82
2022/02/07 11:05:50;;;;;;;24.20;10.60;;;;;;;-1.29;47.22;98944.47;4948161;28;20046;-80
2022/02/07 11:21:35;;;;;;;32.58;12.85;;;;;;;-1.60;48.90;98950.88;4994314;28;20046;-80
2022/02/07 11:25:37;;;;;;;29.05;11.85;;;;;;;-1.80;49.51;98953.38;4980652;28;20047;-80
2022/02/07 11:27:28;;;;;;;29.08;11.52;;;;;;;-2.05;49.46;98950.78;4984002;28;20062;-79
2022/02/07 11:29:55;;;;;;;26.95;11.88;;;;;;;-2.07;49.92;98939.47;4994864;28;20073;-80
2022/02/07 11:32:39;;;;;;;28.58;11.27;;;;;;;-2.48;50.32;98955.72;4994644;28;20188;-81
2022/02/07 11:35:06;;;;;;;28.13;11.30;;;;;;;-2.43;50.58;98942.47;4994552;28;20101;-80
2022/02/07 11:37:33;;;;;;;30.30;11.80;;;;;;;-2.27;50.78;98959.34;4948681;28;20050;-82
2022/02/07 11:39:59;;;;;;;31.70;12.80;;;;;;;-2.35;50.88;98956.16;4949513;28;20054;-82
2022/02/07 11:42:25;;;;;;;29.63;12.02;;;;;;;-2.46;50.73;98960.88;4952596;28;20046;-83
2022/02/07 11:44:51;;;;;;;70.22;27.10;;;;;;;-2.60;51.33;98968.34;4984069;28;20053;-83
2022/02/07 11:47:44;;;;;;;24.45;12.05;;;;;;;-2.77;51.25;98956.66;4978350;28;20070;-82
2022/02/07 11:50:10;;;;;;;37.42;13.10;;;;;;;-2.90;51.85;98964.94;4959078;28;20046;-81
2022/02/07 11:52:45;;;;;;;26.15;11.85;;;;;;;-3.01;52.20;98960.03;4994029;28;20058;-81
2022/02/07 11:55:15;;;;;;;32.13;12.30;;;;;;;-2.94;52.49;98972.03;4977585;28;20048;-80
2022/02/07 11:57:52;;;;;;;30.35;12.38;;;;;;;-2.98;52.24;98967.81;4978012;28;20049;-81
2022/02/07 12:00:23;;;;;;;30.27;11.35;;;;;;;-3.10;52.62;98965.56;4978768;28;20046;-83
2022/02/07 12:02:50;;;;;;;27.17;11.90;;;;;;;-3.26;52.57;98959.97;4977356;28;20050;-82
2022/02/07 12:05:21;;;;;;;31.83;12.73;;;;;;;-3.37;52.59;98967.28;4962351;28;20100;-79
2022/02/07 12:08:07;;;;;;;29.25;13.13;;;;;;;-3.51;53.26;98965.06;4981700;28;20061;-81
2022/02/07 12:10:38;;;;;;;28.25;12.38;;;;;;;-3.49;53.45;98973.72;4986871;28;20057;-82
2022/02/07 12:13:32;;;;;;;32.08;13.68;;;;;;;-3.59;53.38;98975.72;4986147;28;20065;-82
2022/02/07 12:16:21;;;;;;;33.20;13.00;;;;;;;-3.66;53.72;98972.44;5005153;28;20513;-81
2022/02/07 12:19:06;;;;;;;102.18;45.85;;;;;;;-3.75;53.83;98977.06;4971697;28;20117;-80
2022/02/07 12:21:32;;;;;;;21.48;10.90;;;;;;;-3.94;54.29;98980.19;4971726;28;20049;-80
2022/02/07 12:24:02;;;;;;;33.22;12.25;;;;;;;-3.95;54.58;98969.75;4976894;28;20045;-81
2022/02/07 12:26:29;;;;;;;27.23;11.90;;;;;;;-4.08;54.65;98968.41;4977826;28;20046;-88
2022/02/07 12:29:00;;;;;;;29.50;11.38;;;;;;;-4.31;54.97;98972.47;4961001;28;20108;-85
2022/02/07 12:31:27;;;;;;;34.67;11.65;;;;;;;-4.52;55.62;98971.25;4946873;28;20046;-79
2022/02/07 12:34:00;;;;;;;42.53;12.75;;;;;;;-4.43;57.19;98978.00;4960794;28;20042;-82
2022/02/07 12:36:28;;;;;;;32.20;11.95;;;;;;;-4.57;56.52;98980.09;4977130;28;20046;-84
2022/02/07 12:38:55;;;;;;;36.00;12.30;;;;;;;-4.54;56.37;98982.66;4976974;28;20461;-82
2022/02/07 12:41:23;;;;;;;30.95;12.55;;;;;;;-4.61;56.48;98983.69;4945576;28;20561;-82
2022/02/07 12:43:51;;;;;;;28.92;12.07;;;;;;;-4.83;56.21;98984.19;4977848;28;20035;-79
2022/02/07 12:46:19;;;;;;;26.77;12.25;;;;;;;-4.84;56.80;98976.41;4949397;28;20124;-80
2022/02/07 12:49:10;;;;;;;32.92;13.10;;;;;;;-4.84;56.60;98990.31;4963640;28;20462;-87
2022/02/07 12:51:42;;;;;;;;;;;;;;;-4.90;57.06;98987.84;4991850;28;20085;-85
2022/02/07 12:54:13;;;;;;;24.85;11.65;;;;;;;-4.94;56.99;98987.03;5009004;28;19952;-84
2022/02/07 12:56:39;;;;;;;29.70;11.98;;;;;;;-5.05;57.10;98972.56;4974294;28;20050;-87
2022/02/07 12:59:05;;;;;;;30.10;12.93;;;;;;;-5.09;57.38;98991.75;4977344;28;20057;-83
2022/02/07 13:01:53;;;;;;;29.65;13.43;;;;;;;-5.18;57.50;98998.91;4987386;28;20056;-89
2022/02/07 13:04:20;;;;;;;35.05;12.38;;;;;;;-5.44;58.21;98996.84;4957993;28;20042;-82
2022/02/07 13:06:50;;;;;;;34.00;12.80;;;;;;;-5.52;58.35;98995.31;4960567;28;20043;-89
2022/02/07 13:09:26;;;;;;;28.08;12.70;;;;;;;-5.64;58.62;98999.88;4973440;28;20133;-83
2022/02/07 13:12:12;;;;;;;31.33;12.75;;;;;;;-5.70;58.94;99005.19;4957831;28;20528;-81
2022/02/07 13:14:44;;;;;;;23.30;12.55;;;;;;;-5.76;59.76;98996.63;4968347;28;20042;-92
2022/02/07 13:17:11;;;;;;;39.45;13.18;;;;;;;-5.87;59.55;98987.31;4984308;28;20074;-93
2022/02/07 13:19:45;;;;;;;30.38;12.43;;;;;;;-5.78;59.29;99004.50;4966241;28;20428;-92
2022/02/07 13:22:15;;;;;;;33.85;12.43;;;;;;;-5.85;59.60;99008.09;4972127;28;20340;-90
2022/02/07 13:24:40;;;;;;;;;;;;;;;-5.77;60.16;99005.34;4946722;28;20047;-96
2022/02/07 13:27:14;;;;;;;27.55;12.60;;;;;;;-5.89;60.43;99009.91;4986212;28;19925;-95
2022/02/07 13:29:44;;;;;;;25.75;11.57;;;;;;;-5.83;59.90;99008.06;4948581;28;20066;-92
2022/02/07 13:32:12;;;;;;;36.28;12.70;;;;;;;-5.84;60.14;99011.56;4930791;28;20082;-85
2022/02/07 13:34:39;;;;;;;29.90;13.35;;;;;;;-5.80;60.18;99010.59;4971223;28;20550;-83
2022/02/07 13:37:14;;;;;;;32.97;12.68;;;;;;;-5.84;60.25;99007.19;4996580;28;20112;-85
2022/02/07 13:40:00;;;;;;;36.95;14.40;;;;;;;-5.78;60.05;99017.50;5004050;28;20053;-84
2022/02/07 13:42:41;;;;;;;30.90;12.32;;;;;;;-5.78;60.19;99022.72;5013839;28;20076;-92
2022/02/07 13:45:13;;;;;;;32.47;12.77;;;;;;;-5.80;60.13;99019.25;4983760;28;20053;-90
2022/02/07 13:47:40;;;;;;;43.63;14.18;;;;;;;-5.79;60.26;99015.81;4985073;28;20046;-92
2022/02/07 13:50:10;;;;;;;31.38;13.02;;;;;;;-5.81;60.66;99016.72;4988748;28;20097;-90
2022/02/07 13:52:49;;;;;;;35.13;13.82;;;;;;;-5.74;60.45;99023.50;4992726;28;20058;-89
2022/02/07 13:55:23;;;;;;;34.67;14.32;;;;;;;-5.72;60.14;99026.94;4986717;28;20133;-92
2022/02/07 13:58:01;;;;;;;42.33;14.88;;;;;;;-5.75;60.42;99027.88;4958541;28;20073;-92
2022/02/07 14:00:47;;;;;;;31.35;14.07;;;;;;;-5.80;60.54;99034.03;4934343;28;20042;-92
2022/02/07 14:03:38;;;;;;;32.17;13.13;;;;;;;-5.76;60.38;99040.91;4988218;23;20073;-94